EDT,Max TemperatureF,Mean TemperatureF,Min TemperatureF,Max Dew PointF,MeanDew PointF,Min DewpointF,Max Humidity, Mean Humidity, Min Humidity, Max Sea Level PressureIn, Mean Sea Level PressureIn, Min Sea Level PressureIn, Max VisibilityMiles, Mean VisibilityMiles, Min VisibilityMiles, Max Wind SpeedMPH, Mean Wind SpeedMPH, Max Gust SpeedMPH,PrecipitationIn, CloudCover, Events, WindDirDegrees
2013-9-1,77,74,71,72,71,70,100,93,83,29.91,29.88,29.84,10,8,1,15,11,23,1.13,7,Rain-Thunderstorm,211
2013-9-2,78,74,71,73,72,71,100,95,81,29.88,29.81,29.74,10,6,0,13,6,18,0.00,7,Fog-Rain,191
2013-9-3,78,72,66,72,69,64,100,92,81,29.81,29.76,29.70,10,5,0,14,6,28,1.78,7,Fog-Rain-Thunderstorm,221
2013-9-4,79,70,62,66,60,57,94,76,50,29.93,29.86,29.79,10,10,7,18,7,24,0.01,0,,265
2013-9-5,75,62,50,65,59,48,97,85,66,30.11,29.96,29.88,10,10,7,14,6,23,0.04,4,Rain,3
2013-9-6,68,57,48,52,48,45,96,72,45,30.22,30.16,30.11,10,10,10,10,2,,0.01,1,,19
2013-9-7,73,59,46,56,51,43,93,69,48,30.11,30.00,29.88,10,10,10,21,7,29,0.00,0,,237
2013-9-8,77,68,60,63,55,42,87,65,50,30.06,29.85,29.74,10,10,10,17,12,28,0.00,3,Rain,304
2013-9-9,66,56,46,53,46,40,90,61,41,30.23,30.18,30.09,10,10,10,12,6,20,0.00,1,,211
2013-9-10,73,68,64,67,60,52,88,74,63,30.19,30.13,30.06,10,10,9,21,12,28,0.00,5,,212
2013-9-11,82,75,69,71,69,68,100,87,72,30.11,30.06,30.00,10,7,5,21,11,26,0.00,3,,216
2013-9-12,79,74,69,70,70,69,100,89,74,29.99,29.89,29.72,10,7,2,22,13,29,0.00,4,Rain,210
2013-9-13,75,68,64,70,67,60,100,89,73,29.71,29.63,29.57,10,9,2,14,9,22,0.61,6,Rain,268
2013-9-14,70,62,57,59,55,52,90,77,65,30.04,29.87,29.71,10,10,10,12,7,21,0.00,5,,345
2013-9-15,69,60,52,54,51,49,89,72,52,30.16,30.10,30.05,10,10,10,13,5,,0.00,0,,253
2013-9-16,66,60,55,58,53,46,93,78,56,30.17,30.07,30.02,10,10,10,21,5,33,0.02,5,Rain,326
2013-9-17,60,50,41,46,41,37,93,65,49,30.37,30.30,30.17,10,10,10,18,14,30,0.00,4,,17
2013-9-18,70,54,39,52,44,37,93,67,39,30.32,30.24,30.15,10,10,10,15,4,,0.00,0,,251
2013-9-19,73,64,54,59,54,50,93,74,51,30.15,30.10,30.05,10,10,10,9,6,,0.00,0,,238
2013-9-20,75,63,51,61,56,50,100,78,44,30.09,30.06,30.02,10,9,1,10,4,,0.00,0,,220
2013-9-21,75,64,55,66,62,53,100,85,66,30.05,29.95,29.79,10,10,5,14,6,21,0.03,4,Rain,184
2013-9-22,71,65,57,67,62,48,94,83,67,29.78,29.69,29.66,10,9,2,17,11,26,0.12,6,Rain,245
2013-9-23,62,56,51,47,44,41,80,64,53,29.97,29.89,29.79,10,10,10,17,12,24,0.00,0,,345
2013-9-24,62,54,45,49,43,39,90,70,53,29.97,29.90,29.83,10,10,10,12,6,18,0.00,2,,325
2013-9-25,66,54,44,50,47,42,93,72,50,29.96,29.90,29.87,10,10,10,12,3,17,0.00,3,,355
2013-9-26,66,58,52,50,48,44,77,63,50,30.09,30.02,29.96,10,10,10,16,6,22,0.00,5,,11
2013-9-27,66,57,46,54,52,45,93,71,64,30.25,30.16,30.09,10,10,10,18,10,25,0.00,6,,19
2013-9-28,69,58,45,58,50,43,97,80,56,30.30,30.27,30.23,10,10,10,10,2,,0.00,0,,12
2013-9-29,68,54,42,56,50,41,96,83,50,30.25,30.17,30.09,10,10,1,12,2,,0.00,4,,52
2013-9-30,66,60,55,57,56,53,97,84,70,30.08,30.01,29.95,10,10,10,13,7,21,0.00,4,,7